createdAt,value
2022-11-27T00:01:33.464Z,94.50
2022-11-27T00:04:01.275Z,94.70
2022-11-27T00:06:30.048Z,95.60
2022-11-27T00:08:59.450Z,95.10
2022-11-27T00:11:29.235Z,95.50
2022-11-27T00:13:57.098Z,95.90
2022-11-27T00:16:26.068Z,95.20
2022-11-27T00:18:53.866Z,95.20
2022-11-27T00:21:26.912Z,95.90
2022-11-27T00:23:55.975Z,96.50
2022-11-27T00:26:24.078Z,96.20
2022-11-27T00:28:51.761Z,96.90
2022-11-27T00:31:29.189Z,96.90
2022-11-27T00:34:02.327Z,96.80
2022-11-27T00:36:31.463Z,97.30
2022-11-27T00:38:59.047Z,96.80
2022-11-27T00:41:29.152Z,96.70
2022-11-27T00:43:57.184Z,97.20
2022-11-27T00:46:28.929Z,96.80
2022-11-27T00:49:00.759Z,96.70
2022-11-27T00:51:29.373Z,96.20
2022-11-27T00:53:57.044Z,96.20
2022-11-27T00:56:29.780Z,95.70
2022-11-27T00:58:57.457Z,95.40
2022-11-27T01:01:27.888Z,95.50
2022-11-27T01:03:56.972Z,96.30
2022-11-27T01:06:25.344Z,97.10
2022-11-27T01:11:25.730Z,96.30
2022-11-27T01:13:55.430Z,96.30
2022-11-27T01:16:25.191Z,95.80
2022-11-27T01:18:55.676Z,96.10
2022-11-27T01:21:23.758Z,96.20
2022-11-27T01:23:51.245Z,96.40
2022-11-27T01:26:19.352Z,96.40
2022-11-27T01:31:18.252Z,96.80
2022-11-27T01:33:46.959Z,96.60
2022-11-27T01:36:16.027Z,96.80
2022-11-27T01:38:43.444Z,96.90
2022-11-27T01:41:18.931Z,96.50
2022-11-27T01:43:49.995Z,96.50
2022-11-27T01:46:38.514Z,96.50
2022-11-27T01:54:14.518Z,97.90
2022-11-27T01:56:43.892Z,99.90
2022-11-27T01:59:12.211Z,99.90
2022-11-27T02:01:39.787Z,99.90
2022-11-27T02:11:41.305Z,96.20
2022-11-27T02:14:25.787Z,99.90
2022-11-27T02:17:22.636Z,96.70
2022-11-27T02:22:26.676Z,96.40
2022-11-27T02:25:06.377Z,97.50
2022-11-27T02:28:02.467Z,99.90
2022-11-27T02:43:17.400Z,97.70
2022-11-27T02:45:48.347Z,97.70
2022-11-27T02:48:22.672Z,98.40
2022-11-27T02:50:51.136Z,98.10
2022-11-27T02:53:31.012Z,97.80
2022-11-27T02:56:00.552Z,98.60
2022-11-27T02:58:29.239Z,98.50
2022-11-27T03:00:57.974Z,98.30
2022-11-27T03:03:32.046Z,98.30
2022-11-27T03:06:06.019Z,97.80
2022-11-27T03:08:39.296Z,98.40
2022-11-27T03:11:12.345Z,98.50
2022-11-27T03:13:45.316Z,97.70
2022-11-27T03:16:30.552Z,97.90
2022-11-27T03:19:30.187Z,98.70
2022-11-27T03:21:59.997Z,98.10
2022-11-27T03:24:28.315Z,98.20
2022-11-27T03:27:00.283Z,99.90
2022-11-27T03:32:04.255Z,99.90
2022-11-27T03:42:07.421Z,98.30
2022-11-27T03:45:04.344Z,97.40
2022-11-27T03:48:12.336Z,97.60
2022-11-27T03:51:03.800Z,98.30
2022-11-27T03:54:04.113Z,97.30
2022-11-27T04:04:04.692Z,96.10
2022-11-27T04:06:32.127Z,95.80
2022-11-27T04:08:59.556Z,95.40
2022-11-27T04:11:27.370Z,95.20
2022-11-27T04:13:54.784Z,95.20
2022-11-27T04:16:22.580Z,95.40
2022-11-27T04:18:49.970Z,95.70
2022-11-27T04:21:17.493Z,95.70
2022-11-27T04:23:45.476Z,95.70
2022-11-27T04:26:13.109Z,97.20
2022-11-27T04:28:40.455Z,95.80
2022-11-27T04:31:07.964Z,96.20
2022-11-27T04:33:35.311Z,96.00
2022-11-27T04:36:02.657Z,96.40
2022-11-27T04:38:29.940Z,96.20
2022-11-27T04:40:58.006Z,96.10
2022-11-27T04:43:25.354Z,95.70
2022-11-27T04:45:52.730Z,97.40
2022-11-27T04:48:20.080Z,95.60
2022-11-27T04:50:47.377Z,96.20
2022-11-27T04:53:14.818Z,96.00
2022-11-27T04:55:42.144Z,96.60
2022-11-27T04:58:09.476Z,96.30
2022-11-27T05:00:36.923Z,95.90
2022-11-27T05:03:04.357Z,95.90
2022-11-27T05:05:31.745Z,96.00
2022-11-27T05:07:59.221Z,95.90
2022-11-27T05:10:26.799Z,95.50
2022-11-27T05:12:54.182Z,95.20
2022-11-27T05:15:21.534Z,96.00
2022-11-27T05:17:48.888Z,96.40
2022-11-27T05:20:16.396Z,96.30
2022-11-27T05:22:44.854Z,95.80
2022-11-27T05:25:12.297Z,95.60
2022-11-27T05:27:39.692Z,96.00
2022-11-27T05:30:07.817Z,96.30
2022-11-27T05:32:35.123Z,96.00
2022-11-27T05:35:02.470Z,95.60
2022-11-27T05:37:29.801Z,95.00
2022-11-27T05:39:57.120Z,95.80
2022-11-27T05:42:24.453Z,95.50
2022-11-27T05:44:56.677Z,96.50
2022-11-27T05:47:25.570Z,96.80
2022-11-27T05:49:53.321Z,95.90
2022-11-27T05:52:20.716Z,95.50
2022-11-27T05:54:47.996Z,95.30
2022-11-27T05:57:15.409Z,96.00
2022-11-27T05:59:42.722Z,96.20
2022-11-27T06:02:11.964Z,95.50
2022-11-27T06:04:42.662Z,96.70
2022-11-27T06:07:10.489Z,95.50
2022-11-27T06:09:38.241Z,95.90
2022-11-27T06:12:05.878Z,95.50
2022-11-27T06:14:35.058Z,96.00
2022-11-27T06:17:03.164Z,95.80
2022-11-27T06:19:30.809Z,95.60
2022-11-27T06:21:58.252Z,96.10
2022-11-27T06:24:25.770Z,95.70
2022-11-27T06:26:53.105Z,95.60
2022-11-27T06:29:20.414Z,95.80
2022-11-27T06:31:47.863Z,96.20
2022-11-27T06:34:15.246Z,96.50
2022-11-27T06:36:42.514Z,95.50
2022-11-27T06:39:11.893Z,95.40
2022-11-27T06:41:39.221Z,95.80
2022-11-27T06:44:06.617Z,94.90
2022-11-27T06:46:33.927Z,94.90
2022-11-27T06:49:01.426Z,95.20
2022-11-27T06:51:31.215Z,95.10
2022-11-27T06:54:00.442Z,94.90
2022-11-27T07:01:27.382Z,93.20
2022-11-27T07:03:55.510Z,93.00
2022-11-27T07:06:27.174Z,99.90
2022-11-27T07:08:55.458Z,94.10
2022-11-27T07:11:26.179Z,91.20
2022-11-27T07:13:56.150Z,90.00
2022-11-27T07:16:24.076Z,87.60
2022-11-27T07:18:54.097Z,85.20
2022-11-27T07:21:21.889Z,83.80
2022-11-27T07:23:49.313Z,82.40
2022-11-27T07:26:22.297Z,82.40
2022-11-27T07:28:50.129Z,83.30
2022-11-27T07:31:23.122Z,84.00
2022-11-27T07:33:52.563Z,85.00
2022-11-27T07:36:28.994Z,85.00
2022-11-27T07:38:57.997Z,85.10
2022-11-27T07:41:30.617Z,85.30
2022-11-27T07:44:01.224Z,79.40
2022-11-27T07:46:30.195Z,75.80
2022-11-27T07:48:58.163Z,71.80
2022-11-27T07:51:25.477Z,69.70
2022-11-27T07:53:52.919Z,68.10
2022-11-27T07:56:21.054Z,66.10
2022-11-27T07:58:48.543Z,64.20
2022-11-27T08:01:18.372Z,62.50
2022-11-27T08:03:46.393Z,61.70
2022-11-27T08:06:16.746Z,61.50
2022-11-27T08:08:44.333Z,60.40
2022-11-27T08:11:23.338Z,60.10
2022-11-27T08:13:55.145Z,59.90
2022-11-27T08:16:22.694Z,60.00
2022-11-27T08:18:50.105Z,58.90
2022-11-27T08:21:17.436Z,58.10
2022-11-27T08:23:44.842Z,57.50
2022-11-27T08:26:12.806Z,57.80
2022-11-27T08:28:40.564Z,57.80
2022-11-27T08:31:11.333Z,58.90
2022-11-27T08:33:38.776Z,60.20
2022-11-27T08:36:09.766Z,59.50
2022-11-27T08:38:40.518Z,59.30
2022-11-27T08:41:08.920Z,59.10
2022-11-27T08:43:36.699Z,58.50
2022-11-27T08:46:05.764Z,58.80
2022-11-27T08:48:33.480Z,60.50
2022-11-27T08:51:09.210Z,60.40
2022-11-27T08:53:37.746Z,60.40
2022-11-27T08:56:19.544Z,60.30
2022-11-27T08:58:47.027Z,60.90
2022-11-27T09:01:19.199Z,61.80
2022-11-27T09:03:47.818Z,66.20
2022-11-27T09:06:18.772Z,67.70
2022-11-27T09:08:46.126Z,69.10
2022-11-27T09:11:15.431Z,67.20
2022-11-27T09:13:43.474Z,65.10
2022-11-27T09:16:13.879Z,66.10
2022-11-27T09:18:44.014Z,66.50
2022-11-27T09:21:12.896Z,65.50
2022-11-27T09:23:40.848Z,65.40
2022-11-27T09:26:14.102Z,69.30
2022-11-27T09:28:42.611Z,72.00
2022-11-27T09:31:12.643Z,71.30
2022-11-27T09:33:41.320Z,70.50
2022-11-27T09:36:11.437Z,69.80
2022-11-27T09:38:39.146Z,67.20
2022-11-27T09:41:18.189Z,68.90
2022-11-27T09:43:53.567Z,67.30
2022-11-27T09:46:31.344Z,68.10
2022-11-27T09:49:02.878Z,67.40
2022-11-27T09:51:36.031Z,68.60
2022-11-27T09:54:18.696Z,66.70
2022-11-27T09:56:50.181Z,65.80
2022-11-27T09:59:21.344Z,64.30
2022-11-27T10:01:51.057Z,66.70
2022-11-27T10:04:21.029Z,66.10
2022-11-27T10:07:25.910Z,67.60
2022-11-27T10:10:05.029Z,67.30
2022-11-27T10:12:54.133Z,63.70
2022-11-27T10:15:48.445Z,62.00
2022-11-27T10:18:32.402Z,62.90
2022-11-27T10:21:11.779Z,60.30
2022-11-27T10:24:02.256Z,64.60
2022-11-27T10:26:36.552Z,63.30
2022-11-27T10:29:28.408Z,63.10
2022-11-27T10:32:00.943Z,64.50
2022-11-27T10:34:44.753Z,64.60
2022-11-27T10:37:18.085Z,63.70
2022-11-27T10:39:54.141Z,66.20
2022-11-27T10:42:50.643Z,65.70
2022-11-27T10:45:29.156Z,65.10
2022-11-27T10:47:56.553Z,62.50
2022-11-27T10:50:23.954Z,62.40
2022-11-27T10:52:57.913Z,64.60
2022-11-27T10:55:51.574Z,64.70
2022-11-27T10:58:45.430Z,66.80
2022-11-27T11:01:18.830Z,56.60
2022-11-27T11:03:46.745Z,56.70
2022-11-27T11:06:21.207Z,56.90
2022-11-27T11:09:02.931Z,56.00
2022-11-27T11:11:30.285Z,59.20
2022-11-27T11:13:57.807Z,56.50
2022-11-27T11:16:34.749Z,55.90
2022-11-27T11:19:03.183Z,55.80
2022-11-27T11:21:34.347Z,55.70
2022-11-27T11:24:20.571Z,56.30
2022-11-27T11:26:54.288Z,54.80
2022-11-27T11:29:53.406Z,55.20
2022-11-27T11:32:22.716Z,55.10
2022-11-27T11:35:00.807Z,56.70
2022-11-27T11:37:39.517Z,56.10
2022-11-27T11:40:20.777Z,58.80
2022-11-27T11:43:04.295Z,59.40
2022-11-27T11:45:33.811Z,57.30
2022-11-27T11:48:27.543Z,59.30
2022-11-27T11:51:07.157Z,58.30
2022-11-27T11:53:42.613Z,61.50
2022-11-27T11:56:31.805Z,59.60
2022-11-27T11:59:03.742Z,60.60
2022-11-27T12:01:30.978Z,62.60
2022-11-27T12:04:21.639Z,61.30
2022-11-27T12:07:01.341Z,62.50
2022-11-27T12:09:43.799Z,58.80
2022-11-27T12:12:32.656Z,61.30
2022-11-27T12:15:20.077Z,60.00
2022-11-27T12:18:00.983Z,58.80
2022-11-27T12:20:43.536Z,60.20
2022-11-27T12:23:25.604Z,56.60
2022-11-27T12:25:56.131Z,57.40
2022-11-27T12:28:36.596Z,55.80
2022-11-27T12:31:29.284Z,57.20
2022-11-27T12:34:32.116Z,58.80
2022-11-27T12:37:14.228Z,58.10
2022-11-27T12:40:34.253Z,59.70
2022-11-27T12:43:22.009Z,59.00
2022-11-27T12:46:21.152Z,59.80
2022-11-27T12:48:59.980Z,60.30
2022-11-27T12:51:37.931Z,59.30
2022-11-27T12:54:05.330Z,60.20
2022-11-27T12:56:42.659Z,61.60
2022-11-27T12:59:36.995Z,61.80
2022-11-27T13:02:42.498Z,60.70
2022-11-27T13:05:17.848Z,62.00
2022-11-27T13:08:11.221Z,59.80
2022-11-27T13:10:44.094Z,58.90
2022-11-27T13:13:31.447Z,59.50
2022-11-27T13:16:04.321Z,59.80
2022-11-27T13:18:54.663Z,59.80
2022-11-27T13:21:26.899Z,60.50
2022-11-27T13:23:54.597Z,60.20
2022-11-27T13:26:27.420Z,60.80
2022-11-27T13:29:29.085Z,60.80
2022-11-27T13:32:00.326Z,61.50
2022-11-27T13:34:30.164Z,62.20
2022-11-27T13:37:01.441Z,61.20
2022-11-27T13:39:32.908Z,61.00
2022-11-27T13:42:07.982Z,62.70
2022-11-27T13:44:40.643Z,63.30
2022-11-27T13:47:13.899Z,63.40
2022-11-27T13:49:43.402Z,63.80
2022-11-27T13:52:19.731Z,63.70
2022-11-27T13:54:56.757Z,63.20
2022-11-27T13:57:24.796Z,63.20
2022-11-27T14:00:06.792Z,63.10
2022-11-27T14:02:51.210Z,63.70
2022-11-27T14:05:34.071Z,63.50
2022-11-27T14:08:01.628Z,63.80
2022-11-27T14:10:32.058Z,64.50
2022-11-27T14:13:03.864Z,64.50
2022-11-27T14:15:32.588Z,65.30
2022-11-27T14:18:18.561Z,66.80
2022-11-27T14:20:52.342Z,65.80
2022-11-27T14:23:31.120Z,65.50
2022-11-27T14:26:13.410Z,66.10
2022-11-27T14:28:49.159Z,67.50
2022-11-27T14:31:31.623Z,66.90
2022-11-27T14:34:23.136Z,66.50
2022-11-27T14:36:52.914Z,66.70
2022-11-27T14:39:31.874Z,66.90
2022-11-27T14:42:05.130Z,66.50
2022-11-27T14:44:32.577Z,67.40
2022-11-27T14:47:03.620Z,67.40
2022-11-27T14:49:32.995Z,67.90
2022-11-27T14:52:05.501Z,68.40
2022-11-27T14:54:36.890Z,69.30
2022-11-27T14:57:05.888Z,69.90
2022-11-27T14:59:33.601Z,70.40
2022-11-27T15:02:21.421Z,71.20
2022-11-27T15:05:03.829Z,71.30
2022-11-27T15:07:36.564Z,71.90
2022-11-27T15:10:22.867Z,72.40
2022-11-27T15:12:50.648Z,73.10
2022-11-27T15:15:25.802Z,73.30
2022-11-27T15:18:02.571Z,74.20
2022-11-27T15:20:41.017Z,74.10
2022-11-27T15:23:30.557Z,75.30
2022-11-27T15:26:03.709Z,75.80
2022-11-27T15:28:58.961Z,76.90
2022-11-27T15:31:29.315Z,76.30
2022-11-27T15:33:59.311Z,76.60
2022-11-27T15:36:26.845Z,76.80
2022-11-27T15:39:16.180Z,79.50
2022-11-27T15:42:01.188Z,80.00
2022-11-27T15:44:31.210Z,78.70
2022-11-27T15:47:01.400Z,78.00
2022-11-27T15:49:29.333Z,77.70
2022-11-27T15:51:57.814Z,78.10
2022-11-27T15:54:25.971Z,77.90
2022-11-27T15:56:53.285Z,77.40
2022-11-27T15:59:20.819Z,78.00
2022-11-27T16:01:49.648Z,78.30
2022-11-27T16:04:17.479Z,78.60
2022-11-27T16:06:45.661Z,78.80
2022-11-27T16:09:13.087Z,78.90
2022-11-27T16:11:40.807Z,79.50
2022-11-27T16:14:08.258Z,79.70
2022-11-27T16:16:35.754Z,79.80
2022-11-27T16:19:05.413Z,80.10
2022-11-27T16:21:34.821Z,80.30
2022-11-27T16:24:04.431Z,80.70
2022-11-27T16:26:32.618Z,80.80
2022-11-27T16:29:00.255Z,80.80
2022-11-27T16:31:28.077Z,81.20
2022-11-27T16:33:55.593Z,81.60
2022-11-27T16:36:25.535Z,82.00
2022-11-27T16:38:57.456Z,81.90
2022-11-27T16:41:26.078Z,82.20
2022-11-27T16:43:56.750Z,82.20
2022-11-27T16:46:28.153Z,82.90
2022-11-27T16:48:57.631Z,83.40
2022-11-27T16:51:28.607Z,83.30
2022-11-27T16:53:57.881Z,84.50
2022-11-27T16:56:27.957Z,84.70
2022-11-27T16:59:02.360Z,84.80
2022-11-27T17:01:35.258Z,84.80
2022-11-27T17:04:04.795Z,87.20
2022-11-27T17:06:33.612Z,85.60
2022-11-27T17:09:02.395Z,86.50
2022-11-27T17:11:35.842Z,86.40
2022-11-27T17:14:08.795Z,88.80
2022-11-27T17:16:41.270Z,87.50
2022-11-27T17:19:15.602Z,87.50
2022-11-27T17:21:44.818Z,88.20
2022-11-27T17:24:15.961Z,89.30
2022-11-27T17:26:48.315Z,90.30
2022-11-27T17:29:18.775Z,90.40
2022-11-27T17:31:46.199Z,90.10
2022-11-27T17:34:15.715Z,89.80
2022-11-27T17:36:45.436Z,89.40
2022-11-27T17:39:15.181Z,89.10
2022-11-27T17:41:46.775Z,89.40
2022-11-27T17:44:14.311Z,89.50
2022-11-27T17:46:41.914Z,88.80
2022-11-27T17:49:10.583Z,88.90
2022-11-27T17:51:38.898Z,89.00
2022-11-27T17:54:06.952Z,88.80
2022-11-27T17:56:34.854Z,89.40
2022-11-27T17:59:03.156Z,89.80
2022-11-27T18:01:31.316Z,90.80
2022-11-27T18:04:01.114Z,90.60
2022-11-27T18:06:30.948Z,90.50
2022-11-27T18:08:59.305Z,90.60
2022-11-27T18:11:28.456Z,90.60
2022-11-27T18:13:58.747Z,90.10
2022-11-27T18:16:32.687Z,90.60
2022-11-27T18:19:04.489Z,90.60
2022-11-27T18:21:31.849Z,90.60
2022-11-27T18:29:36.073Z,90.50
2022-11-27T18:32:03.589Z,90.30
2022-11-27T18:34:31.279Z,90.30
2022-11-27T18:36:59.681Z,90.10
2022-11-27T18:39:28.183Z,90.50
2022-11-27T18:41:55.635Z,90.30
2022-11-27T18:44:23.376Z,90.70
2022-11-27T18:46:50.814Z,90.60
2022-11-27T18:49:19.050Z,90.80
2022-11-27T18:51:49.143Z,90.30
2022-11-27T18:54:16.677Z,90.80
2022-11-27T18:56:44.006Z,90.60
2022-11-27T18:59:11.654Z,90.90
2022-11-27T19:01:42.339Z,91.00
2022-11-27T19:04:11.827Z,91.20
2022-11-27T19:06:39.822Z,91.40
2022-11-27T19:09:07.632Z,91.50
2022-11-27T19:11:35.444Z,91.20
2022-11-27T19:14:04.777Z,91.00
2022-11-27T19:16:35.210Z,91.30
2022-11-27T19:19:05.351Z,91.30
2022-11-27T19:21:35.054Z,91.30
2022-11-27T19:24:05.352Z,91.20
2022-11-27T19:26:35.661Z,91.10
2022-11-27T19:29:07.879Z,91.20
2022-11-27T19:31:38.109Z,91.30
2022-11-27T19:34:06.017Z,91.30
2022-11-27T19:36:35.150Z,91.70
2022-11-27T19:39:05.498Z,92.00
2022-11-27T19:41:32.707Z,91.50
2022-11-27T19:44:04.695Z,91.30
2022-11-27T19:46:33.665Z,90.90
2022-11-27T19:49:07.955Z,91.20
2022-11-27T19:51:36.143Z,91.10
2022-11-27T19:54:08.302Z,91.20
2022-11-27T19:56:40.086Z,91.30
2022-11-27T19:59:08.497Z,91.50
2022-11-27T20:01:37.569Z,90.90
2022-11-27T20:04:05.195Z,91.30
2022-11-27T20:06:32.437Z,91.30
2022-11-27T20:09:01.164Z,91.00
2022-11-27T20:11:34.239Z,91.30
2022-11-27T20:14:04.062Z,90.80
2022-11-27T20:16:33.589Z,90.80
2022-11-27T20:19:02.083Z,91.20
2022-11-27T20:21:29.265Z,91.40
2022-11-27T20:23:57.855Z,91.00
2022-11-27T20:26:26.420Z,91.10
2022-11-27T20:28:54.165Z,91.10
2022-11-27T20:31:24.217Z,91.30
2022-11-27T20:33:52.411Z,91.00
2022-11-27T20:36:20.148Z,91.30
2022-11-27T20:38:48.784Z,91.40
2022-11-27T20:41:17.364Z,92.10
2022-11-27T20:43:44.628Z,92.10
2022-11-27T20:46:13.463Z,92.00
2022-11-27T20:48:40.917Z,92.00
2022-11-27T20:51:13.699Z,91.60
2022-11-27T20:53:41.550Z,91.90
2022-11-27T20:56:09.905Z,91.50
2022-11-27T20:58:38.205Z,92.10
2022-11-27T21:01:18.042Z,92.00
2022-11-27T21:03:46.211Z,91.90
2022-11-27T21:06:14.228Z,92.00
2022-11-27T21:08:41.549Z,92.00
2022-11-27T21:11:15.933Z,91.50
2022-11-27T21:13:44.781Z,99.50
2022-11-27T21:16:13.208Z,92.30
2022-11-27T21:18:40.905Z,91.70
2022-11-27T21:21:09.117Z,91.60
2022-11-27T21:23:36.272Z,91.90
2022-11-27T21:26:04.140Z,91.70
2022-11-27T21:28:31.805Z,91.80
2022-11-27T21:31:09.867Z,92.40
2022-11-27T21:33:37.198Z,92.20
2022-11-27T21:36:04.849Z,91.80
2022-11-27T21:38:33.623Z,91.90
2022-11-27T21:41:01.343Z,92.10
2022-11-27T21:43:28.657Z,91.90
2022-11-27T21:45:55.996Z,92.20
2022-11-27T21:48:23.479Z,92.30
2022-11-27T21:50:50.882Z,92.10
2022-11-27T21:53:36.324Z,92.40
2022-11-27T21:56:04.199Z,92.60
2022-11-27T21:58:34.254Z,92.50
2022-11-27T22:01:02.047Z,92.10
2022-11-27T22:03:29.255Z,92.10
2022-11-27T22:05:59.809Z,92.50
2022-11-27T22:08:27.134Z,92.50
2022-11-27T22:10:54.255Z,92.50
2022-11-27T22:13:21.699Z,92.40
2022-11-27T22:15:49.112Z,92.20
2022-11-27T22:18:16.715Z,92.50
2022-11-27T22:20:43.886Z,92.30
2022-11-27T22:23:11.367Z,92.30
2022-11-27T22:25:38.577Z,92.20
2022-11-27T22:28:06.022Z,94.60
2022-11-27T22:30:33.215Z,94.60
2022-11-27T22:33:00.473Z,95.00
2022-11-27T22:35:28.130Z,93.50
2022-11-27T22:37:55.535Z,97.20
2022-11-27T22:40:23.493Z,99.90
2022-11-27T22:42:50.745Z,99.90
2022-11-27T22:45:17.978Z,99.90
2022-11-27T22:47:45.110Z,92.70
2022-11-27T22:50:12.355Z,92.90
2022-11-27T22:52:39.495Z,92.90
2022-11-27T22:55:06.844Z,92.90
2022-11-27T22:57:34.264Z,92.90
2022-11-27T23:00:01.441Z,92.90
2022-11-27T23:02:30.271Z,93.40
2022-11-27T23:04:57.440Z,93.60
2022-11-27T23:07:25.428Z,93.20
2022-11-27T23:09:52.964Z,93.30
2022-11-27T23:12:20.066Z,93.50
2022-11-27T23:14:47.284Z,93.10
2022-11-27T23:17:14.555Z,92.80
2022-11-27T23:19:41.925Z,93.30
2022-11-27T23:22:09.057Z,92.90
2022-11-27T23:24:36.266Z,92.80
2022-11-27T23:27:03.472Z,92.60
2022-11-27T23:29:30.666Z,92.60
2022-11-27T23:31:57.845Z,92.40
2022-11-27T23:34:25.014Z,92.60
2022-11-27T23:36:52.182Z,92.90
2022-11-27T23:39:19.337Z,92.60
2022-11-27T23:41:49.143Z,92.40
2022-11-27T23:44:16.439Z,92.30
2022-11-27T23:46:43.545Z,92.40
2022-11-27T23:49:10.615Z,92.20
2022-11-27T23:51:37.843Z,91.80
2022-11-27T23:54:09.333Z,92.10
2022-11-27T23:56:37.625Z,96.60
2022-11-27T23:59:05.495Z,91.90
